createdAt,value
2019-03-04T00:00:42.501Z,0.00
2019-03-04T00:01:42.508Z,0.00
2019-03-04T00:02:42.310Z,0.00
2019-03-04T00:03:42.213Z,0.00
2019-03-04T00:04:42.133Z,0.00
2019-03-04T00:05:42.016Z,0.00
2019-03-04T00:06:41.917Z,0.00
2019-03-04T00:07:41.947Z,0.00
2019-03-04T00:08:41.723Z,0.00
2019-03-04T00:09:41.643Z,0.00
2019-03-04T00:10:41.528Z,0.00
2019-03-04T00:11:41.430Z,0.00
2019-03-04T00:12:41.336Z,0.00
2019-03-04T00:13:41.234Z,0.00
2019-03-04T00:14:41.156Z,0.00
2019-03-04T00:15:41.042Z,0.00
2019-03-04T00:16:40.943Z,0.00
2019-03-04T00:17:40.849Z,0.00
2019-03-04T00:18:40.749Z,0.00
2019-03-04T00:19:40.668Z,0.00
2019-03-04T00:20:40.556Z,0.00
2019-03-04T00:21:40.461Z,0.00
2019-03-04T00:22:40.358Z,0.00
2019-03-04T00:23:40.263Z,0.00
2019-03-04T00:24:40.183Z,0.00
2019-03-04T00:25:40.069Z,0.00
2019-03-04T00:26:39.968Z,0.00
2019-03-04T00:27:39.874Z,0.00
2019-03-04T00:28:39.773Z,0.00
2019-03-04T00:29:39.694Z,0.00
2019-03-04T00:30:39.581Z,0.00
2019-03-04T00:31:39.482Z,0.00
2019-03-04T00:32:39.384Z,0.00
2019-03-04T00:33:39.289Z,0.00
2019-03-04T00:34:39.207Z,0.00
2019-03-04T00:35:39.093Z,0.00
2019-03-04T00:36:38.997Z,0.00
2019-03-04T00:37:38.898Z,0.00
2019-03-04T00:38:38.802Z,0.00
2019-03-04T00:39:38.723Z,0.00
2019-03-04T00:40:38.606Z,0.00
2019-03-04T00:41:38.515Z,0.00
2019-03-04T00:42:38.415Z,0.00
2019-03-04T00:43:38.324Z,0.00
2019-03-04T00:44:38.226Z,0.00
2019-03-04T00:45:38.138Z,0.00
2019-03-04T00:46:38.026Z,0.00
2019-03-04T00:47:37.929Z,0.00
2019-03-04T00:48:37.830Z,0.00
2019-03-04T00:49:37.733Z,0.00
2019-03-04T00:50:37.654Z,0.00
2019-03-04T00:51:37.538Z,0.00
2019-03-04T00:52:37.447Z,0.00
2019-03-04T00:53:37.343Z,0.00
2019-03-04T00:54:37.250Z,0.00
2019-03-04T00:55:37.169Z,0.00
2019-03-04T00:56:37.054Z,0.00
2019-03-04T00:57:36.959Z,0.00
2019-03-04T00:58:36.863Z,0.00
2019-03-04T00:59:36.768Z,0.00
2019-03-04T01:00:36.681Z,0.00
2019-03-04T01:01:36.566Z,0.00
2019-03-04T01:02:36.471Z,0.00
2019-03-04T01:03:36.373Z,0.00
2019-03-04T01:04:36.285Z,0.00
2019-03-04T01:05:36.196Z,0.00
2019-03-04T01:06:36.087Z,0.00
2019-03-04T01:07:35.993Z,0.00
2019-03-04T01:08:35.899Z,0.00
2019-03-04T01:09:35.793Z,0.00
2019-03-04T01:10:35.713Z,0.00
2019-03-04T01:11:35.597Z,0.00
2019-03-04T01:12:35.500Z,0.00
2019-03-04T01:13:35.406Z,0.00
2019-03-04T01:14:35.308Z,0.00
2019-03-04T01:15:35.228Z,0.00
2019-03-04T01:16:35.114Z,0.00
2019-03-04T01:17:35.145Z,0.00
2019-03-04T01:18:34.920Z,0.00
2019-03-04T01:19:34.824Z,0.00
2019-03-04T01:20:34.742Z,0.00
2019-03-04T01:21:34.633Z,0.00
2019-03-04T01:22:34.534Z,0.00
2019-03-04T01:23:34.439Z,0.00
2019-03-04T01:24:34.442Z,0.00
2019-03-04T01:25:34.256Z,0.00
2019-03-04T01:26:34.143Z,0.00
2019-03-04T01:27:34.058Z,0.00
2019-03-04T01:28:33.948Z,0.00
2019-03-04T01:29:33.852Z,0.00
2019-03-04T01:30:33.771Z,0.00
2019-03-04T01:31:33.764Z,0.00
2019-03-04T01:32:33.569Z,0.00
2019-03-04T01:33:33.464Z,0.00
2019-03-04T01:34:33.366Z,0.00
2019-03-04T01:35:33.287Z,0.00
2019-03-04T01:36:33.173Z,0.00
2019-03-04T01:37:33.078Z,0.00
2019-03-04T01:38:33.083Z,0.00
2019-03-04T01:39:32.885Z,0.00
2019-03-04T01:40:32.800Z,0.00
2019-03-04T01:41:32.690Z,0.00
2019-03-04T01:42:32.589Z,0.00
2019-03-04T01:43:32.495Z,0.00
2019-03-04T01:44:32.396Z,0.00
2019-03-04T01:45:32.426Z,0.00
2019-03-04T01:46:32.200Z,0.00
2019-03-04T01:47:32.103Z,0.00
2019-03-04T01:48:32.004Z,0.00
2019-03-04T01:49:31.908Z,0.00
2019-03-04T01:50:31.827Z,0.00
2019-03-04T01:51:31.713Z,0.00
2019-03-04T01:52:31.723Z,0.00
2019-03-04T01:53:31.521Z,0.00
2019-03-04T01:54:31.421Z,0.00
2019-03-04T01:55:31.342Z,0.00
2019-03-04T01:56:31.226Z,0.00
2019-03-04T01:57:31.129Z,0.00
2019-03-04T01:58:31.035Z,0.00
2019-03-04T01:59:31.041Z,0.00
2019-03-04T02:00:30.860Z,0.00
2019-03-04T02:01:30.740Z,0.00
2019-03-04T02:02:30.643Z,0.00
2019-03-04T02:03:30.545Z,0.00
2019-03-04T02:04:30.452Z,0.00
2019-03-04T02:05:30.371Z,0.00
2019-03-04T02:06:30.373Z,0.00
2019-03-04T02:07:30.156Z,0.00
2019-03-04T02:08:30.062Z,0.00
2019-03-04T02:09:29.965Z,0.00
2019-03-04T02:10:29.885Z,0.00
2019-03-04T02:11:29.768Z,0.00
2019-03-04T02:12:29.671Z,0.00
2019-03-04T02:13:29.677Z,0.00
2019-03-04T02:14:29.474Z,0.00
2019-03-04T02:15:29.382Z,0.00
2019-03-04T02:16:29.295Z,0.00
2019-03-04T02:17:29.197Z,0.00
2019-03-04T02:18:29.092Z,0.00
2019-03-04T02:19:29.003Z,0.00
2019-03-04T02:20:29.002Z,0.00
2019-03-04T02:21:28.808Z,0.00
2019-03-04T02:22:28.694Z,0.00
2019-03-04T02:23:28.596Z,0.00
2019-03-04T02:24:28.502Z,0.00
2019-03-04T02:25:28.403Z,0.00
2019-03-04T02:26:28.320Z,0.00
2019-03-04T02:27:28.327Z,0.00
2019-03-04T02:28:28.109Z,0.00
2019-03-04T02:29:28.013Z,0.00
2019-03-04T02:30:27.924Z,0.00
2019-03-04T02:31:27.833Z,0.00
2019-03-04T02:32:27.719Z,0.00
2019-03-04T02:33:27.621Z,0.00
2019-03-04T02:34:27.629Z,0.00
2019-03-04T02:35:27.429Z,0.00
2019-03-04T02:36:27.346Z,0.00
2019-03-04T02:37:27.233Z,0.00
2019-03-04T02:38:27.132Z,0.00
2019-03-04T02:39:27.038Z,0.00
2019-03-04T02:40:27.062Z,0.00
2019-03-04T02:41:26.856Z,0.00
2019-03-04T02:42:26.740Z,0.00
2019-03-04T02:43:26.649Z,0.00
2019-03-04T02:44:26.549Z,0.00
2019-03-04T02:45:26.465Z,0.00
2019-03-04T02:46:26.402Z,0.00
2019-03-04T02:47:26.251Z,0.00
2019-03-04T02:48:26.269Z,0.00
2019-03-04T02:49:26.054Z,0.00
2019-03-04T02:50:25.959Z,0.00
2019-03-04T02:51:25.876Z,0.00
2019-03-04T02:52:25.759Z,0.00
2019-03-04T02:53:25.668Z,0.00
2019-03-04T02:54:25.691Z,0.00
2019-03-04T02:55:25.468Z,0.00
2019-03-04T02:56:25.385Z,0.00
2019-03-04T02:57:25.277Z,0.00
2019-03-04T02:58:25.171Z,0.00
2019-03-04T02:59:25.085Z,0.00
2019-03-04T03:00:24.978Z,0.00
2019-03-04T03:01:24.900Z,0.00
2019-03-04T03:02:24.777Z,0.00
2019-03-04T03:03:24.707Z,0.00
2019-03-04T03:04:24.580Z,0.00
2019-03-04T03:05:24.485Z,0.00
2019-03-04T03:06:24.402Z,0.00
2019-03-04T03:07:24.282Z,0.00
2019-03-04T03:08:24.186Z,0.00
2019-03-04T03:09:24.089Z,0.00
2019-03-04T03:10:23.990Z,0.00
2019-03-04T03:11:23.908Z,0.00
2019-03-04T03:12:23.796Z,0.00
2019-03-04T03:13:23.694Z,0.00
2019-03-04T03:14:23.597Z,0.00
2019-03-04T03:15:23.501Z,0.00
2019-03-04T03:16:23.416Z,0.00
2019-03-04T03:17:23.305Z,0.00
2019-03-04T03:18:23.205Z,0.00
2019-03-04T03:19:23.108Z,0.00
2019-03-04T03:20:23.010Z,0.00
2019-03-04T03:21:22.939Z,0.00
2019-03-04T03:22:22.812Z,0.00
2019-03-04T03:23:22.718Z,0.00
2019-03-04T03:24:22.619Z,0.00
2019-03-04T03:25:22.517Z,0.00
2019-03-04T03:26:22.434Z,0.00
2019-03-04T03:27:22.375Z,0.00
2019-03-04T03:28:22.222Z,0.00
2019-03-04T03:29:22.125Z,0.00
2019-03-04T03:30:22.052Z,0.00
2019-03-04T03:31:21.952Z,0.00
2019-03-04T03:32:21.838Z,0.00
2019-03-04T03:33:21.744Z,0.00
2019-03-04T03:34:21.633Z,0.00
2019-03-04T03:35:21.539Z,0.00
2019-03-04T03:36:21.456Z,0.00
2019-03-04T03:37:21.342Z,0.00
2019-03-04T03:38:21.241Z,0.00
2019-03-04T03:39:21.143Z,0.00
2019-03-04T03:40:21.115Z,0.00
2019-03-04T03:41:20.963Z,0.00
2019-03-04T03:42:20.848Z,0.00
2019-03-04T03:43:20.751Z,0.00
2019-03-04T03:44:20.658Z,0.00
2019-03-04T03:45:20.558Z,0.00
2019-03-04T03:46:20.471Z,0.00
2019-03-04T03:47:20.355Z,0.00
2019-03-04T03:48:20.268Z,0.00
2019-03-04T03:49:20.159Z,0.00
2019-03-04T03:50:20.063Z,0.00
2019-03-04T03:51:19.980Z,0.00
2019-03-04T03:52:19.868Z,0.00
2019-03-04T03:53:19.767Z,0.00
2019-03-04T03:54:19.667Z,0.00
2019-03-04T03:55:19.571Z,0.00
2019-03-04T03:56:19.494Z,0.00
2019-03-04T03:57:19.477Z,0.00
2019-03-04T03:58:19.275Z,0.00
2019-03-04T03:59:19.180Z,0.00
2019-03-04T04:00:19.079Z,0.00
2019-03-04T04:01:18.984Z,0.00
2019-03-04T04:02:18.900Z,0.00
2019-03-04T04:03:18.784Z,0.00
2019-03-04T04:04:18.685Z,0.00
2019-03-04T04:05:18.588Z,0.00
2019-03-04T04:06:18.494Z,0.00
2019-03-04T04:07:18.412Z,0.00
2019-03-04T04:08:18.306Z,0.00
2019-03-04T04:09:18.200Z,0.00
2019-03-04T04:10:18.101Z,0.00
2019-03-04T04:11:18.105Z,0.00
2019-03-04T04:12:17.924Z,0.00
2019-03-04T04:13:17.802Z,0.00
2019-03-04T04:14:17.711Z,0.00
2019-03-04T04:15:17.612Z,0.00
2019-03-04T04:16:17.510Z,0.00
2019-03-04T04:17:17.427Z,0.00
2019-03-04T04:18:17.314Z,0.00
2019-03-04T04:19:17.215Z,0.00
2019-03-04T04:20:17.133Z,0.00
2019-03-04T04:21:17.025Z,0.00
2019-03-04T04:22:16.935Z,0.00
2019-03-04T04:23:16.821Z,0.00
2019-03-04T04:24:16.724Z,0.00
2019-03-04T04:25:16.630Z,0.00
2019-03-04T04:26:16.638Z,0.00
2019-03-04T04:27:16.445Z,0.00
2019-03-04T04:28:16.337Z,0.00
2019-03-04T04:29:16.230Z,0.00
2019-03-04T04:30:16.135Z,0.00
2019-03-04T04:31:16.033Z,0.00
2019-03-04T04:32:15.956Z,0.00
2019-03-04T04:33:15.947Z,0.00
2019-03-04T04:34:15.748Z,0.00
2019-03-04T04:35:15.641Z,0.00
2019-03-04T04:36:15.541Z,0.00
2019-03-04T04:37:15.463Z,0.00
2019-03-04T04:38:15.346Z,0.00
2019-03-04T04:39:15.246Z,0.00
2019-03-04T04:40:15.258Z,0.00
2019-03-04T04:41:15.050Z,0.00
2019-03-04T04:42:14.994Z,0.00
2019-03-04T04:43:14.856Z,0.00
2019-03-04T04:44:14.757Z,0.00
2019-03-04T04:45:14.661Z,0.00
2019-03-04T04:46:14.562Z,0.00
2019-03-04T04:47:14.594Z,0.00
2019-03-04T04:48:14.364Z,0.00
2019-03-04T04:49:14.267Z,0.00
2019-03-04T04:50:14.165Z,0.00
2019-03-04T04:51:14.071Z,0.00
2019-03-04T04:52:13.987Z,0.00
2019-03-04T04:53:13.871Z,0.00
2019-03-04T04:54:13.878Z,0.00
2019-03-04T04:55:13.673Z,0.00
2019-03-04T04:56:13.579Z,0.00
2019-03-04T04:57:13.495Z,0.00
2019-03-04T04:58:13.377Z,0.00
2019-03-04T04:59:13.283Z,0.00
2019-03-04T05:00:13.186Z,0.00
2019-03-04T05:01:13.207Z,0.00
2019-03-04T05:02:13.001Z,0.00
2019-03-04T05:03:12.887Z,0.00
2019-03-04T05:04:12.789Z,0.00
2019-03-04T05:05:12.691Z,0.00
2019-03-04T05:06:13.116Z,0.00
2019-03-04T05:07:12.510Z,0.00
2019-03-04T05:08:12.516Z,0.00
2019-03-04T05:09:12.301Z,0.00
2019-03-04T05:10:12.211Z,0.00
2019-03-04T05:11:12.101Z,0.00
2019-03-04T05:12:12.018Z,0.00
2019-03-04T05:13:11.905Z,0.00
2019-03-04T05:14:11.806Z,0.00
2019-03-04T05:15:11.812Z,0.00
2019-03-04T05:16:11.610Z,0.00
2019-03-04T05:17:11.526Z,0.00
2019-03-04T05:18:11.416Z,0.00
2019-03-04T05:19:11.321Z,0.00
2019-03-04T05:20:11.215Z,0.00
2019-03-04T05:21:11.139Z,0.00
2019-03-04T05:22:11.036Z,0.00
2019-03-04T05:23:10.923Z,4.00
2019-03-04T05:24:10.827Z,4.00
2019-03-04T05:25:10.725Z,4.00
2019-03-04T05:26:10.627Z,4.00
2019-03-04T05:27:10.545Z,4.00
2019-03-04T05:28:10.432Z,8.00
2019-03-04T05:29:10.335Z,4.00
2019-03-04T05:30:10.240Z,8.00
2019-03-04T05:31:10.137Z,8.00
2019-03-04T05:32:10.056Z,8.00
2019-03-04T05:33:09.945Z,12.00
2019-03-04T05:34:09.840Z,16.00
2019-03-04T05:35:09.741Z,24.00
2019-03-04T05:36:09.644Z,24.00
2019-03-04T05:37:09.562Z,28.00
2019-03-04T05:38:09.448Z,32.00
2019-03-04T05:39:09.348Z,36.00
2019-03-04T05:40:09.267Z,44.00
2019-03-04T05:41:09.152Z,44.00
2019-03-04T05:42:09.070Z,52.00
2019-03-04T05:43:08.957Z,56.00
2019-03-04T05:44:08.862Z,64.00
2019-03-04T05:45:08.761Z,80.00
2019-03-04T05:46:08.663Z,96.00
2019-03-04T05:47:08.564Z,108.00
2019-03-04T05:48:08.482Z,116.00
2019-03-04T05:49:08.365Z,128.00
2019-03-04T05:50:08.269Z,136.00
2019-03-04T05:51:08.167Z,140.00
2019-03-04T05:52:08.071Z,152.00
2019-03-04T05:53:07.985Z,156.00
2019-03-04T05:54:07.875Z,164.00
2019-03-04T05:55:08.881Z,180.00
2019-03-04T05:56:07.675Z,204.00
2019-03-04T05:57:07.581Z,220.00
2019-03-04T05:58:07.495Z,240.00
2019-03-04T05:59:07.396Z,264.00
2019-03-04T06:00:07.285Z,296.00
2019-03-04T06:01:07.185Z,332.00
2019-03-04T06:02:07.087Z,364.00
2019-03-04T06:03:07.003Z,404.00
2019-03-04T06:04:06.891Z,452.00
2019-03-04T06:05:06.788Z,492.00
2019-03-04T06:06:06.690Z,544.00
2019-03-04T06:07:06.597Z,604.00
2019-03-04T06:08:06.510Z,672.00
2019-03-04T06:09:06.395Z,772.00
2019-03-04T06:10:06.300Z,924.00
2019-03-04T06:11:06.199Z,1084.00
2019-03-04T06:12:06.100Z,1244.00
2019-03-04T06:13:06.019Z,1400.00
2019-03-04T06:14:05.903Z,1584.00
2019-03-04T06:15:05.801Z,1808.00
2019-03-04T06:16:05.707Z,2084.00
2019-03-04T06:17:05.607Z,2364.00
2019-03-04T06:18:05.528Z,2460.00
2019-03-04T06:19:05.410Z,2504.00
2019-03-04T06:20:05.315Z,2580.00
2019-03-04T06:21:05.220Z,2724.00
2019-03-04T06:22:05.120Z,2956.00
2019-03-04T06:23:05.036Z,3376.00
2019-03-04T06:24:04.919Z,3880.00
2019-03-04T06:25:07.453Z,4308.00
2019-03-04T06:26:04.726Z,4612.00
2019-03-04T06:27:04.623Z,4828.00
2019-03-04T06:28:04.544Z,4740.00
2019-03-04T06:29:04.446Z,4280.00
2019-03-04T06:30:04.339Z,3728.00
2019-03-04T06:31:04.232Z,3276.00
2019-03-04T06:32:04.137Z,2908.00
2019-03-04T06:33:04.051Z,2556.00
2019-03-04T06:34:03.938Z,2244.00
2019-03-04T06:35:03.846Z,1960.00
2019-03-04T06:36:03.743Z,1808.00
2019-03-04T06:37:03.644Z,1680.00
2019-03-04T06:38:03.562Z,1648.00
2019-03-04T06:39:03.450Z,1780.00
2019-03-04T06:40:03.349Z,2016.00
2019-03-04T06:41:03.258Z,2148.00
2019-03-04T06:42:03.156Z,2040.00
2019-03-04T06:43:03.076Z,1960.00
2019-03-04T06:44:02.957Z,1984.00
2019-03-04T06:45:02.860Z,2096.00
2019-03-04T06:46:02.761Z,2220.00
2019-03-04T06:47:02.665Z,2356.00
2019-03-04T06:48:02.600Z,2496.00
2019-03-04T06:49:02.468Z,2644.00
2019-03-04T06:50:02.370Z,2804.00
2019-03-04T06:51:02.270Z,2980.00
2019-03-04T06:52:02.178Z,3112.00
2019-03-04T06:53:02.090Z,3180.00
2019-03-04T06:54:01.977Z,3308.00
2019-03-04T06:55:01.878Z,3604.00
2019-03-04T06:56:01.783Z,4048.00
2019-03-04T06:57:01.689Z,4408.00
2019-03-04T06:58:01.601Z,4660.00
2019-03-04T06:59:01.593Z,4888.00
2019-03-04T07:00:01.388Z,5036.00
2019-03-04T07:01:01.289Z,5104.00
2019-03-04T07:02:01.194Z,5108.00
2019-03-04T07:03:01.114Z,5100.00
2019-03-04T07:04:00.996Z,5344.00
2019-03-04T07:05:00.902Z,5948.00
2019-03-04T07:06:00.905Z,6256.00
2019-03-04T07:07:00.700Z,6056.00
2019-03-04T07:08:00.623Z,5452.00
2019-03-04T07:09:00.510Z,5276.00
2019-03-04T07:10:00.414Z,5104.00
2019-03-04T07:11:00.310Z,4992.00
2019-03-04T07:12:00.215Z,5504.00
2019-03-04T07:13:00.236Z,6308.00
2019-03-04T07:14:00.018Z,7520.00
2019-03-04T07:14:59.921Z,8456.00
2019-03-04T07:15:59.827Z,8996.00
2019-03-04T07:16:59.751Z,9632.00
2019-03-04T07:17:59.646Z,10628.00
2019-03-04T07:18:59.531Z,10828.00
2019-03-04T07:19:59.553Z,11184.00
2019-03-04T07:20:59.337Z,12120.00
2019-03-04T07:21:59.244Z,12780.00
2019-03-04T07:22:59.161Z,14208.00
2019-03-04T07:23:59.048Z,14864.00
2019-03-04T07:24:58.949Z,14384.00
2019-03-04T07:25:58.861Z,14024.00
2019-03-04T07:26:58.857Z,11536.00
2019-03-04T07:27:58.674Z,9820.00
2019-03-04T07:28:58.560Z,8328.00
2019-03-04T07:29:58.463Z,7116.00
2019-03-04T07:30:58.363Z,6264.00
2019-03-04T07:31:58.271Z,5792.00
2019-03-04T07:32:58.189Z,5624.00
2019-03-04T07:33:58.177Z,5652.00
2019-03-04T07:34:57.980Z,5840.00
2019-03-04T07:35:57.883Z,6136.00
2019-03-04T07:36:57.784Z,6476.00
2019-03-04T07:37:57.702Z,6844.00
2019-03-04T07:38:57.588Z,7204.00
2019-03-04T07:39:57.495Z,7676.00
2019-03-04T07:40:57.501Z,8388.00
2019-03-04T07:41:57.298Z,9452.00
2019-03-04T07:42:57.203Z,10456.00
2019-03-04T07:43:57.119Z,11312.00
2019-03-04T07:44:57.007Z,12416.00
2019-03-04T07:45:56.909Z,12400.00
2019-03-04T07:46:56.810Z,12136.00
2019-03-04T07:47:56.824Z,11984.00
2019-03-04T07:48:56.638Z,12276.00
2019-03-04T07:49:56.521Z,12356.00
2019-03-04T07:50:56.427Z,12228.00
2019-03-04T07:51:56.326Z,11956.00
2019-03-04T07:52:56.231Z,14008.00
2019-03-04T07:53:56.153Z,21024.00
2019-03-04T07:54:56.158Z,23328.00
2019-03-04T07:55:55.943Z,25984.00
2019-03-04T07:56:55.845Z,27680.00
2019-03-04T07:57:55.757Z,30848.00
2019-03-04T07:58:55.671Z,32320.00
2019-03-04T07:59:55.558Z,30656.00
2019-03-04T08:00:55.458Z,30176.00
2019-03-04T08:01:55.472Z,31168.00
2019-03-04T08:02:55.266Z,28576.00
2019-03-04T08:03:55.187Z,25792.00
2019-03-04T08:04:55.092Z,25504.00
2019-03-04T08:05:54.980Z,28160.00
2019-03-04T08:06:54.881Z,27296.00
2019-03-04T08:07:54.786Z,25984.00
2019-03-04T08:08:54.715Z,24160.00
2019-03-04T08:09:54.597Z,21664.00
2019-03-04T08:10:54.504Z,23552.00
2019-03-04T08:11:54.407Z,20288.00
2019-03-04T08:12:54.314Z,24960.00
2019-03-04T08:13:54.236Z,24416.00
2019-03-04T08:14:54.136Z,19168.00
2019-03-04T08:15:54.133Z,17600.00
2019-03-04T08:16:53.932Z,18592.00
2019-03-04T08:17:53.838Z,19488.00
2019-03-04T08:18:53.763Z,19296.00
2019-03-04T08:19:53.648Z,17952.00
2019-03-04T08:20:53.554Z,18944.00
2019-03-04T08:21:53.462Z,21344.00
2019-03-04T08:22:53.364Z,23488.00
2019-03-04T08:23:53.286Z,23776.00
2019-03-04T08:24:53.175Z,23744.00
2019-03-04T08:25:53.083Z,22816.00
2019-03-04T08:26:52.988Z,22624.00
2019-03-04T08:27:52.896Z,22592.00
2019-03-04T08:28:52.813Z,20416.00
2019-03-04T08:29:52.703Z,22400.00
2019-03-04T08:30:52.611Z,23072.00
2019-03-04T08:31:52.518Z,22336.00
2019-03-04T08:32:52.422Z,22624.00
2019-03-04T08:33:52.345Z,24448.00
2019-03-04T08:34:52.236Z,23872.00
2019-03-04T08:35:52.144Z,21792.00
2019-03-04T08:36:52.045Z,21024.00
2019-03-04T08:37:51.949Z,21472.00
2019-03-04T08:38:51.871Z,22592.00
2019-03-04T08:39:51.763Z,22208.00
2019-03-04T08:40:51.667Z,23104.00
2019-03-04T08:41:51.603Z,23552.00
2019-03-04T08:42:51.483Z,21504.00
2019-03-04T08:43:51.407Z,20928.00
2019-03-04T08:44:51.299Z,21152.00
2019-03-04T08:45:51.201Z,18432.00
2019-03-04T08:46:51.110Z,18016.00
2019-03-04T08:47:51.015Z,19072.00
2019-03-04T08:48:50.938Z,18688.00
2019-03-04T08:49:50.828Z,21216.00
2019-03-04T08:50:50.736Z,21664.00
2019-03-04T08:51:50.646Z,22752.00
2019-03-04T08:52:50.551Z,23584.00
2019-03-04T08:53:50.483Z,26752.00
2019-03-04T08:54:50.362Z,27424.00
2019-03-04T08:55:50.277Z,27616.00
2019-03-04T08:56:50.179Z,30912.00
2019-03-04T08:57:50.085Z,32416.00
2019-03-04T08:58:50.011Z,33792.00
2019-03-04T08:59:49.912Z,35296.00
2019-03-04T09:00:49.810Z,32704.00
2019-03-04T09:01:49.715Z,29632.00
2019-03-04T09:02:49.624Z,30784.00
2019-03-04T09:03:49.548Z,33536.00
2019-03-04T09:04:49.438Z,33728.00
2019-03-04T09:05:49.345Z,22784.00
2019-03-04T09:06:49.254Z,23840.00
2019-03-04T09:07:49.162Z,21280.00
2019-03-04T09:08:49.088Z,17792.00
2019-03-04T09:09:48.979Z,15656.00
2019-03-04T09:10:48.887Z,18240.00
2019-03-04T09:11:48.809Z,21248.00
2019-03-04T09:12:48.699Z,10988.00
2019-03-04T09:13:48.623Z,22016.00
2019-03-04T09:14:48.513Z,10924.00
2019-03-04T09:15:48.422Z,14148.00
2019-03-04T09:16:48.329Z,27456.00
2019-03-04T09:17:48.236Z,30112.00
2019-03-04T09:18:48.158Z,32768.00
2019-03-04T09:19:48.051Z,36512.00
2019-03-04T09:20:47.964Z,41184.00
2019-03-04T09:21:47.865Z,39520.00
2019-03-04T09:22:47.775Z,37408.00
2019-03-04T09:23:49.926Z,40160.00
2019-03-04T09:24:47.605Z,41280.00
2019-03-04T09:25:47.497Z,38528.00
2019-03-04T09:26:47.402Z,42336.00
2019-03-04T09:27:47.311Z,43328.00
2019-03-04T09:28:47.225Z,40800.00
2019-03-04T09:29:47.145Z,41792.00
2019-03-04T09:30:47.035Z,43200.00
2019-03-04T09:31:46.945Z,42368.00
2019-03-04T09:32:46.858Z,26176.00
2019-03-04T09:33:46.765Z,21344.00
2019-03-04T09:34:46.688Z,15680.00
2019-03-04T09:35:46.582Z,14188.00
2019-03-04T09:36:46.491Z,13200.00
2019-03-04T09:37:46.410Z,11576.00
2019-03-04T09:38:46.314Z,10528.00
2019-03-04T09:39:46.235Z,10572.00
2019-03-04T09:40:46.126Z,10496.00
2019-03-04T09:41:46.038Z,9504.00
2019-03-04T09:42:45.943Z,7416.00
2019-03-04T09:43:45.858Z,6064.00
2019-03-04T09:44:45.781Z,5348.00
2019-03-04T09:45:45.669Z,5124.00
2019-03-04T09:46:45.579Z,3972.00
2019-03-04T09:47:45.488Z,3500.00
2019-03-04T09:48:45.393Z,3316.00
2019-03-04T09:49:45.321Z,3152.00
2019-03-04T09:50:45.207Z,3556.00
2019-03-04T09:51:45.119Z,3816.00
2019-03-04T09:52:45.031Z,3628.00
2019-03-04T09:53:44.935Z,3824.00
2019-03-04T09:54:44.855Z,4084.00
2019-03-04T09:55:44.746Z,3912.00
2019-03-04T09:56:44.654Z,4212.00
2019-03-04T09:57:44.565Z,4392.00
2019-03-04T09:58:44.465Z,4900.00
2019-03-04T09:59:44.392Z,5112.00
2019-03-04T10:00:44.436Z,5832.00
2019-03-04T10:01:44.187Z,5688.00
2019-03-04T10:02:44.093Z,5424.00
2019-03-04T10:03:43.998Z,5604.00
2019-03-04T10:04:43.928Z,5884.00
2019-03-04T10:05:43.813Z,5752.00
2019-03-04T10:06:43.720Z,5192.00
2019-03-04T10:07:43.755Z,4360.00
2019-03-04T10:08:43.531Z,3704.00
2019-03-04T10:09:43.453Z,3624.00
2019-03-04T10:10:43.342Z,3620.00
2019-03-04T10:11:43.250Z,3596.00
2019-03-04T10:12:43.157Z,3184.00
2019-03-04T10:13:43.060Z,3048.00
2019-03-04T10:14:43.091Z,3420.00
2019-03-04T10:15:42.870Z,3116.00
2019-03-04T10:16:42.777Z,2816.00
2019-03-04T10:17:42.686Z,3688.00
2019-03-04T10:18:42.587Z,5224.00
2019-03-04T10:19:42.511Z,6620.00
2019-03-04T10:20:42.408Z,5924.00
2019-03-04T10:21:42.413Z,5488.00
2019-03-04T10:22:42.207Z,5836.00
2019-03-04T10:23:42.117Z,5964.00
2019-03-04T10:24:42.039Z,5784.00
2019-03-04T10:25:41.927Z,6504.00
2019-03-04T10:26:41.830Z,7072.00
2019-03-04T10:27:41.757Z,6716.00
2019-03-04T10:28:41.764Z,5712.00
2019-03-04T10:29:41.565Z,3832.00
2019-03-04T10:30:41.451Z,2368.00
2019-03-04T10:31:41.358Z,1972.00
2019-03-04T10:32:41.262Z,2028.00
2019-03-04T10:33:41.167Z,2328.00
2019-03-04T10:34:41.084Z,2316.00
2019-03-04T10:35:41.078Z,2236.00
2019-03-04T10:36:40.882Z,2760.00
2019-03-04T10:37:40.785Z,5308.00
2019-03-04T10:38:42.996Z,10792.00
2019-03-04T10:39:40.611Z,11960.00
2019-03-04T10:40:40.502Z,10132.00
2019-03-04T10:41:40.405Z,11828.00
2019-03-04T10:42:40.412Z,13316.00
2019-03-04T10:43:40.213Z,11980.00
2019-03-04T10:44:40.141Z,11420.00
2019-03-04T10:45:40.025Z,10860.00
2019-03-04T10:46:39.926Z,9760.00
2019-03-04T10:47:39.830Z,9904.00
2019-03-04T10:48:39.739Z,10196.00
2019-03-04T10:49:39.764Z,10760.00
2019-03-04T10:50:39.545Z,11324.00
2019-03-04T10:51:39.452Z,11388.00
2019-03-04T10:52:39.362Z,11116.00
2019-03-04T10:53:39.262Z,11424.00
2019-03-04T10:54:39.183Z,12140.00
2019-03-04T10:55:42.268Z,12032.00
2019-03-04T10:56:40.717Z,11244.00
2019-03-04T10:57:38.878Z,10540.00
2019-03-04T10:58:38.782Z,10008.00
2019-03-04T10:59:38.705Z,9704.00
2019-03-04T11:00:38.594Z,10124.00
2019-03-04T11:01:38.499Z,11684.00
2019-03-04T11:02:38.402Z,12992.00
2019-03-04T11:03:38.417Z,10668.00
2019-03-04T11:04:38.235Z,9172.00
2019-03-04T11:05:38.117Z,8796.00
2019-03-04T11:06:38.023Z,8776.00
2019-03-04T11:07:37.926Z,8084.00
2019-03-04T11:08:37.833Z,7932.00
2019-03-04T11:09:37.861Z,8332.00
2019-03-04T11:10:37.641Z,8704.00
2019-03-04T11:11:37.551Z,8800.00
2019-03-04T11:12:37.454Z,9324.00
2019-03-04T11:13:37.358Z,11472.00
2019-03-04T11:14:37.262Z,16152.00
2019-03-04T11:15:37.182Z,15276.00
2019-03-04T11:16:37.084Z,14996.00
2019-03-04T11:17:37.032Z,14028.00
2019-03-04T11:18:36.880Z,14200.00
2019-03-04T11:19:36.789Z,14912.00
2019-03-04T11:20:36.711Z,15824.00
2019-03-04T11:21:36.599Z,18688.00
2019-03-04T11:22:36.501Z,18752.00
2019-03-04T11:23:36.412Z,18176.00
2019-03-04T11:24:36.318Z,18720.00
2019-03-04T11:25:36.242Z,17632.00
2019-03-04T11:26:36.126Z,16100.00
2019-03-04T11:27:36.026Z,14552.00
2019-03-04T11:28:35.937Z,14224.00
2019-03-04T11:29:35.845Z,11660.00
2019-03-04T11:30:35.758Z,9776.00
2019-03-04T11:31:35.648Z,8840.00
2019-03-04T11:32:35.553Z,12268.00
2019-03-04T11:33:35.457Z,15988.00
2019-03-04T11:34:35.361Z,21056.00
2019-03-04T11:35:35.285Z,20320.00
2019-03-04T11:36:35.172Z,14448.00
2019-03-04T11:37:35.081Z,16208.00
2019-03-04T11:38:34.985Z,51072.00
2019-03-04T11:39:34.887Z,38112.00
2019-03-04T11:40:34.812Z,15284.00
2019-03-04T11:41:34.698Z,14344.00
2019-03-04T11:42:34.602Z,13132.00
2019-03-04T11:43:34.511Z,14424.00
2019-03-04T11:44:34.418Z,18368.00
2019-03-04T11:45:34.340Z,17696.00
2019-03-04T11:46:34.230Z,16184.00
2019-03-04T11:47:34.132Z,15140.00
2019-03-04T11:48:34.041Z,14516.00
2019-03-04T11:49:33.945Z,14316.00
2019-03-04T11:50:33.868Z,13848.00
2019-03-04T11:51:33.759Z,14228.00
2019-03-04T11:52:33.661Z,14412.00
2019-03-04T11:53:33.570Z,14152.00
2019-03-04T11:54:33.475Z,14904.00
2019-03-04T11:55:33.401Z,16900.00
2019-03-04T11:56:33.288Z,22976.00
2019-03-04T11:57:33.193Z,59328.00
2019-03-04T11:58:33.096Z,27328.00
2019-03-04T11:59:33.003Z,23712.00
2019-03-04T12:00:32.925Z,21664.00
2019-03-04T12:01:32.813Z,27008.00
2019-03-04T12:02:38.793Z,26272.00
2019-03-04T12:03:32.628Z,21312.00
2019-03-04T12:04:32.531Z,19104.00
2019-03-04T12:05:32.470Z,16348.00
2019-03-04T12:06:32.340Z,14412.00
2019-03-04T12:07:32.249Z,14912.00
2019-03-04T12:08:32.158Z,14340.00
2019-03-04T12:09:32.065Z,13820.00
2019-03-04T12:10:31.990Z,14500.00
2019-03-04T12:11:38.284Z,13668.00
2019-03-04T12:12:31.779Z,12180.00
2019-03-04T12:13:31.688Z,13448.00
2019-03-04T12:14:31.591Z,14848.00
2019-03-04T12:15:31.518Z,13600.00
2019-03-04T12:16:31.403Z,12280.00
2019-03-04T12:17:31.308Z,11796.00
2019-03-04T12:18:31.218Z,12208.00
2019-03-04T12:19:31.124Z,13232.00
2019-03-04T12:20:31.044Z,14780.00
2019-03-04T12:21:30.935Z,15624.00
2019-03-04T12:22:30.837Z,16828.00
2019-03-04T12:23:30.746Z,13892.00
2019-03-04T12:24:30.653Z,12852.00
2019-03-04T12:25:30.574Z,10208.00
2019-03-04T12:26:30.570Z,9372.00
2019-03-04T12:27:30.370Z,10140.00
2019-03-04T12:28:30.273Z,10812.00
2019-03-04T12:29:30.180Z,11164.00